sensor_id;sensor_type;location;lat;lon;timestamp;pressure;altitude;pressure_sealevel;temperature;humidity
25430;BME280;13360;48.152;-1.788;2023-03-26T00:01:12;101699.47;;;11.51;100.00
25430;BME280;13360;48.152;-1.788;2023-03-26T00:03:40;101641.13;;;11.27;100.00
25430;BME280;13360;48.152;-1.788;2023-03-26T00:06:07;101633.06;;;11.41;100.00
25430;BME280;13360;48.152;-1.788;2023-03-26T00:08:34;101614.28;;;11.33;100.00
25430;BME280;13360;48.152;-1.788;2023-03-26T00:11:01;101591.03;;;11.39;100.00
25430;BME280;13360;48.152;-1.788;2023-03-26T00:13:27;101570.03;;;11.33;100.00
25430;BME280;13360;48.152;-1.788;2023-03-26T00:15:52;101562.50;;;11.44;100.00
25430;BME280;13360;48.152;-1.788;2023-03-26T00:18:19;101543.97;;;11.54;100.00
25430;BME280;13360;48.152;-1.788;2023-03-26T00:20:46;101525.19;;;11.46;100.00
25430;BME280;13360;48.152;-1.788;2023-03-26T00:23:11;101481.25;;;11.35;100.00
25430;BME280;13360;48.152;-1.788;2023-03-26T00:25:38;101469.97;;;11.26;100.00
25430;BME280;13360;48.152;-1.788;2023-03-26T00:28:06;101457.00;;;11.16;100.00
25430;BME280;13360;48.152;-1.788;2023-03-26T00:30:32;101461.94;;;11.24;100.00
25430;BME280;13360;48.152;-1.788;2023-03-26T00:33:00;101457.19;;;11.35;100.00
25430;BME280;13360;48.152;-1.788;2023-03-26T00:35:25;101435.38;;;11.28;100.00
25430;BME280;13360;48.152;-1.788;2023-03-26T00:37:50;101441.66;;;11.39;100.00
25430;BME280;13360;48.152;-1.788;2023-03-26T00:40:17;101439.19;;;11.38;100.00
25430;BME280;13360;48.152;-1.788;2023-03-26T00:42:43;101424.50;;;11.47;100.00
25430;BME280;13360;48.152;-1.788;2023-03-26T00:45:08;101396.28;;;11.40;100.00
25430;BME280;13360;48.152;-1.788;2023-03-26T00:47:34;101377.22;;;11.39;100.00
25430;BME280;13360;48.152;-1.788;2023-03-26T00:50:00;101389.41;;;11.38;100.00
25430;BME280;13360;48.152;-1.788;2023-03-26T00:52:25;101366.81;;;11.25;100.00
25430;BME280;13360;48.152;-1.788;2023-03-26T00:54:53;101372.56;;;11.34;100.00
25430;BME280;13360;48.152;-1.788;2023-03-26T00:57:19;101371.78;;;11.28;100.00
25430;BME280;13360;48.152;-1.788;2023-03-26T00:59:46;101365.38;;;11.33;100.00
25430;BME280;13360;48.152;-1.788;2023-03-26T01:02:13;101346.06;;;11.28;100.00
25430;BME280;13360;48.152;-1.788;2023-03-26T01:04:49;101333.66;;;11.20;100.00
25430;BME280;13360;48.152;-1.788;2023-03-26T01:07:20;101337.13;;;11.36;100.00
25430;BME280;13360;48.152;-1.788;2023-03-26T01:09:50;101336.50;;;11.44;100.00
25430;BME280;13360;48.152;-1.788;2023-03-26T01:12:18;101321.03;;;11.43;100.00
25430;BME280;13360;48.152;-1.788;2023-03-26T01:14:49;101318.84;;;11.45;100.00
25430;BME280;13360;48.152;-1.788;2023-03-26T01:17:16;101311.13;;;11.37;100.00
25430;BME280;13360;48.152;-1.788;2023-03-26T01:22:39;101294.19;;;11.44;100.00
25430;BME280;13360;48.152;-1.788;2023-03-26T01:25:06;101283.88;;;11.25;100.00
25430;BME280;13360;48.152;-1.788;2023-03-26T01:28:02;101284.97;;;11.24;100.00
25430;BME280;13360;48.152;-1.788;2023-03-26T01:33:33;101274.81;;;11.15;100.00
25430;BME280;13360;48.152;-1.788;2023-03-26T01:36:37;101296.88;;;11.25;100.00
25430;BME280;13360;48.152;-1.788;2023-03-26T01:39:16;101291.56;;;11.28;100.00
25430;BME280;13360;48.152;-1.788;2023-03-26T01:41:50;101275.63;;;11.15;100.00
25430;BME280;13360;48.152;-1.788;2023-03-26T01:44:30;101302.88;;;11.32;100.00
25430;BME280;13360;48.152;-1.788;2023-03-26T01:46:59;101279.16;;;11.21;100.00
25430;BME280;13360;48.152;-1.788;2023-03-26T01:49:26;101302.88;;;11.32;100.00
25430;BME280;13360;48.152;-1.788;2023-03-26T01:51:54;101281.81;;;11.36;100.00
25430;BME280;13360;48.152;-1.788;2023-03-26T01:54:22;101257.56;;;11.28;100.00
25430;BME280;13360;48.152;-1.788;2023-03-26T02:05:21;101220.50;;;11.29;100.00
25430;BME280;13360;48.152;-1.788;2023-03-26T02:07:59;101215.78;;;11.29;100.00
25430;BME280;13360;48.152;-1.788;2023-03-26T02:10:28;101206.69;;;11.29;100.00
25430;BME280;13360;48.152;-1.788;2023-03-26T02:12:55;101197.31;;;11.25;100.00
25430;BME280;13360;48.152;-1.788;2023-03-26T02:15:22;101189.25;;;11.28;100.00
25430;BME280;13360;48.152;-1.788;2023-03-26T02:17:47;101179.31;;;11.27;100.00
25430;BME280;13360;48.152;-1.788;2023-03-26T02:20:14;101171.84;;;11.28;100.00
25430;BME280;13360;48.152;-1.788;2023-03-26T02:22:43;101160.81;;;11.23;100.00
25430;BME280;13360;48.152;-1.788;2023-03-26T02:25:11;101164.38;;;11.28;100.00
25430;BME280;13360;48.152;-1.788;2023-03-26T02:27:38;101153.91;;;11.25;100.00
25430;BME280;13360;48.152;-1.788;2023-03-26T02:30:05;101146.44;;;11.21;100.00
25430;BME280;13360;48.152;-1.788;2023-03-26T02:32:31;101135.22;;;11.12;100.00
25430;BME280;13360;48.152;-1.788;2023-03-26T02:34:56;101135.75;;;11.14;100.00
25430;BME280;13360;48.152;-1.788;2023-03-26T02:37:22;101133.75;;;11.20;100.00
25430;BME280;13360;48.152;-1.788;2023-03-26T02:39:47;101137.84;;;11.22;100.00
25430;BME280;13360;48.152;-1.788;2023-03-26T02:42:12;101135.06;;;11.27;100.00
25430;BME280;13360;48.152;-1.788;2023-03-26T02:44:40;101121.53;;;11.26;100.00
25430;BME280;13360;48.152;-1.788;2023-03-26T02:47:05;101105.03;;;11.16;100.00
25430;BME280;13360;48.152;-1.788;2023-03-26T02:49:30;101113.38;;;11.11;100.00
25430;BME280;13360;48.152;-1.788;2023-03-26T02:51:56;101121.63;;;11.16;100.00
25430;BME280;13360;48.152;-1.788;2023-03-26T02:54:22;101122.44;;;11.16;100.00
25430;BME280;13360;48.152;-1.788;2023-03-26T02:56:47;101120.44;;;11.22;100.00
25430;BME280;13360;48.152;-1.788;2023-03-26T02:59:13;101109.91;;;11.24;100.00
25430;BME280;13360;48.152;-1.788;2023-03-26T03:01:39;101109.66;;;11.25;100.00
25430;BME280;13360;48.152;-1.788;2023-03-26T03:04:09;101106.59;;;11.27;100.00
25430;BME280;13360;48.152;-1.788;2023-03-26T03:06:34;101109.88;;;11.29;100.00
25430;BME280;13360;48.152;-1.788;2023-03-26T03:08:59;101108.78;;;11.30;100.00
25430;BME280;13360;48.152;-1.788;2023-03-26T03:11:26;101106.59;;;11.27;100.00
25430;BME280;13360;48.152;-1.788;2023-03-26T03:13:52;101117.66;;;11.27;100.00
25430;BME280;13360;48.152;-1.788;2023-03-26T03:16:18;101115.72;;;11.27;100.00
25430;BME280;13360;48.152;-1.788;2023-03-26T03:18:44;101107.41;;;11.27;100.00
25430;BME280;13360;48.152;-1.788;2023-03-26T03:21:10;101106.59;;;11.27;100.00
25430;BME280;13360;48.152;-1.788;2023-03-26T03:23:35;101108.53;;;11.26;100.00
25430;BME280;13360;48.152;-1.788;2023-03-26T03:26:01;101101.34;;;11.25;100.00
25430;BME280;13360;48.152;-1.788;2023-03-26T03:28:26;101090.56;;;11.24;100.00
25430;BME280;13360;48.152;-1.788;2023-03-26T03:30:52;101092.28;;;11.20;100.00
25430;BME280;13360;48.152;-1.788;2023-03-26T03:33:18;101099.75;;;11.19;100.00
25430;BME280;13360;48.152;-1.788;2023-03-26T03:35:46;101096.69;;;11.21;100.00
25430;BME280;13360;48.152;-1.788;2023-03-26T03:38:13;101103.84;;;11.22;100.00
25430;BME280;13360;48.152;-1.788;2023-03-26T03:40:38;101105.50;;;11.23;100.00
25430;BME280;13360;48.152;-1.788;2023-03-26T03:43:03;101105.25;;;11.24;100.00
25430;BME280;13360;48.152;-1.788;2023-03-26T03:45:29;101115.19;;;11.25;100.00
25430;BME280;13360;48.152;-1.788;2023-03-26T03:47:55;101112.94;;;11.27;100.00
25430;BME280;13360;48.152;-1.788;2023-03-26T03:50:20;101113.78;;;11.28;100.00
25430;BME280;13360;48.152;-1.788;2023-03-26T03:52:46;101121.47;;;11.31;100.00
25430;BME280;13360;48.152;-1.788;2023-03-26T03:55:11;101085.69;;;11.16;100.00
25430;BME280;13360;48.152;-1.788;2023-03-26T03:57:38;101093.63;;;11.22;100.00
25430;BME280;13360;48.152;-1.788;2023-03-26T04:00:05;101095.84;;;11.20;100.00
25430;BME280;13360;48.152;-1.788;2023-03-26T04:02:34;101127.91;;;11.26;100.00
25430;BME280;13360;48.152;-1.788;2023-03-26T04:05:01;101146.13;;;11.27;100.00
25430;BME280;13360;48.152;-1.788;2023-03-26T04:07:28;101160.56;;;11.19;100.00
25430;BME280;13360;48.152;-1.788;2023-03-26T04:10:00;101181.88;;;11.19;100.00
25430;BME280;13360;48.152;-1.788;2023-03-26T04:12:29;101188.81;;;11.16;100.00
25430;BME280;13360;48.152;-1.788;2023-03-26T04:14:55;101168.16;;;11.09;100.00
25430;BME280;13360;48.152;-1.788;2023-03-26T04:17:21;101178.09;;;11.10;100.00
25430;BME280;13360;48.152;-1.788;2023-03-26T04:19:48;101162.03;;;11.12;100.00
25430;BME280;13360;48.152;-1.788;2023-03-26T04:22:15;101148.50;;;11.10;100.00
25430;BME280;13360;48.152;-1.788;2023-03-26T04:24:42;101168.03;;;11.19;100.00
25430;BME280;13360;48.152;-1.788;2023-03-26T04:27:11;101137.69;;;11.14;100.00
25430;BME280;13360;48.152;-1.788;2023-03-26T04:29:44;101147.03;;;11.18;100.00
25430;BME280;13360;48.152;-1.788;2023-03-26T04:32:18;101128.56;;;11.13;100.00
25430;BME280;13360;48.152;-1.788;2023-03-26T04:34:46;101133.78;;;11.15;100.00
25430;BME280;13360;48.152;-1.788;2023-03-26T04:37:18;101135.69;;;11.19;100.00
25430;BME280;13360;48.152;-1.788;2023-03-26T04:39:45;101133.75;;;11.20;100.00
25430;BME280;13360;48.152;-1.788;2023-03-26T04:42:10;101134.56;;;11.20;100.00
25430;BME280;13360;48.152;-1.788;2023-03-26T04:44:36;101128.22;;;11.20;100.00
25430;BME280;13360;48.152;-1.788;2023-03-26T04:47:01;101121.03;;;11.19;100.00
25430;BME280;13360;48.152;-1.788;2023-03-26T04:49:26;101118.31;;;11.14;100.00
25430;BME280;13360;48.152;-1.788;2023-03-26T04:51:52;101113.63;;;11.14;100.00
25430;BME280;13360;48.152;-1.788;2023-03-26T04:54:19;101100.31;;;11.16;100.00
25430;BME280;13360;48.152;-1.788;2023-03-26T04:56:59;101089.34;;;11.11;100.00
25430;BME280;13360;48.152;-1.788;2023-03-26T04:59:28;101079.97;;;11.07;100.00
25430;BME280;13360;48.152;-1.788;2023-03-26T05:01:59;101072.00;;;11.00;100.00
25430;BME280;13360;48.152;-1.788;2023-03-26T05:04:25;101078.66;;;10.99;100.00
25430;BME280;13360;48.152;-1.788;2023-03-26T05:06:51;101083.69;;;10.92;100.00
25430;BME280;13360;48.152;-1.788;2023-03-26T05:09:18;101095.81;;;10.96;100.00
25430;BME280;13360;48.152;-1.788;2023-03-26T05:11:43;101101.59;;;11.00;100.00
25430;BME280;13360;48.152;-1.788;2023-03-26T05:14:08;101101.34;;;10.96;100.00
25430;BME280;13360;48.152;-1.788;2023-03-26T05:16:35;101115.69;;;10.98;100.00
25430;BME280;13360;48.152;-1.788;2023-03-26T05:19:00;101099.69;;;10.95;100.00
25430;BME280;13360;48.152;-1.788;2023-03-26T05:21:25;101110.22;;;10.93;100.00
25430;BME280;13360;48.152;-1.788;2023-03-26T05:23:51;101100.28;;;10.92;100.00
25430;BME280;13360;48.152;-1.788;2023-03-26T05:26:16;101098.63;;;10.91;100.00
25430;BME280;13360;48.152;-1.788;2023-03-26T05:28:41;101106.41;;;10.89;100.00
25430;BME280;13360;48.152;-1.788;2023-03-26T05:31:07;101105.88;;;10.87;100.00
25430;BME280;13360;48.152;-1.788;2023-03-26T05:33:33;101094.31;;;10.80;100.00
25430;BME280;13360;48.152;-1.788;2023-03-26T05:36:07;101088.81;;;10.75;100.00
25430;BME280;13360;48.152;-1.788;2023-03-26T05:38:34;101085.53;;;10.73;100.00
25430;BME280;13360;48.152;-1.788;2023-03-26T05:41:01;101083.94;;;10.67;100.00
25430;BME280;13360;48.152;-1.788;2023-03-26T05:43:28;101080.94;;;10.63;100.00
25430;BME280;13360;48.152;-1.788;2023-03-26T05:45:54;101089.75;;;10.65;100.00
25430;BME280;13360;48.152;-1.788;2023-03-26T05:48:20;101099.97;;;10.65;100.00
25430;BME280;13360;48.152;-1.788;2023-03-26T05:50:54;101107.44;;;10.64;100.00
25430;BME280;13360;48.152;-1.788;2023-03-26T05:53:21;101103.31;;;10.62;100.00
25430;BME280;13360;48.152;-1.788;2023-03-26T05:55:47;101103.56;;;10.60;100.00
25430;BME280;13360;48.152;-1.788;2023-03-26T05:58:25;101093.69;;;10.54;100.00
25430;BME280;13360;48.152;-1.788;2023-03-26T06:00:59;101109.97;;;10.56;100.00
25430;BME280;13360;48.152;-1.788;2023-03-26T06:03:26;101115.75;;;10.59;100.00
25430;BME280;13360;48.152;-1.788;2023-03-26T06:05:52;101097.81;;;10.57;100.00
25430;BME280;13360;48.152;-1.788;2023-03-26T06:08:17;101092.28;;;10.57;100.00
25430;BME280;13360;48.152;-1.788;2023-03-26T06:10:43;101082.97;;;10.48;100.00
25430;BME280;13360;48.152;-1.788;2023-03-26T06:13:09;101084.63;;;10.49;100.00
25430;BME280;13360;48.152;-1.788;2023-03-26T06:15:34;101079.94;;;10.49;100.00
25430;BME280;13360;48.152;-1.788;2023-03-26T06:17:59;101075.22;;;10.50;100.00
25430;BME280;13360;48.152;-1.788;2023-03-26T06:20:25;101070.81;;;10.49;100.00
25430;BME280;13360;48.152;-1.788;2023-03-26T06:22:50;101074.66;;;10.53;100.00
25430;BME280;13360;48.152;-1.788;2023-03-26T06:25:16;101073.53;;;10.54;100.00
25430;BME280;13360;48.152;-1.788;2023-03-26T06:27:41;101071.00;;;10.57;100.00
25430;BME280;13360;48.152;-1.788;2023-03-26T06:30:07;101072.38;;;10.60;100.00
25430;BME280;13360;48.152;-1.788;2023-03-26T06:32:32;101083.69;;;10.63;100.00
25430;BME280;13360;48.152;-1.788;2023-03-26T06:34:58;101088.34;;;10.68;100.00
25430;BME280;13360;48.152;-1.788;2023-03-26T06:37:23;101095.47;;;10.74;100.00
25430;BME280;13360;48.152;-1.788;2023-03-26T06:39:48;101093.56;;;10.69;100.00
25430;BME280;13360;48.152;-1.788;2023-03-26T06:42:14;101102.09;;;10.73;100.00
25430;BME280;13360;48.152;-1.788;2023-03-26T06:44:39;101117.28;;;10.76;100.00
25430;BME280;13360;48.152;-1.788;2023-03-26T06:47:04;101123.03;;;10.79;100.00
25430;BME280;13360;48.152;-1.788;2023-03-26T06:49:30;101118.63;;;10.78;100.00
25430;BME280;13360;48.152;-1.788;2023-03-26T06:51:55;101121.44;;;10.73;100.00
25430;BME280;13360;48.152;-1.788;2023-03-26T06:54:21;101119.50;;;10.74;100.00
25430;BME280;13360;48.152;-1.788;2023-03-26T06:56:47;101130.81;;;10.77;100.00
25430;BME280;13360;48.152;-1.788;2023-03-26T06:59:12;101137.38;;;10.86;100.00
25430;BME280;13360;48.152;-1.788;2023-03-26T07:01:37;101157.84;;;10.80;100.00
25430;BME280;13360;48.152;-1.788;2023-03-26T07:04:03;101194.50;;;10.96;100.00
25430;BME280;13360;48.152;-1.788;2023-03-26T07:06:28;101225.63;;;11.12;100.00
25430;BME280;13360;48.152;-1.788;2023-03-26T07:08:53;101243.75;;;11.23;100.00
25430;BME280;13360;48.152;-1.788;2023-03-26T07:11:20;101235.19;;;11.24;100.00
25430;BME280;13360;48.152;-1.788;2023-03-26T07:13:48;101231.63;;;11.19;100.00
25430;BME280;13360;48.152;-1.788;2023-03-26T07:16:14;101238.91;;;11.10;100.00
25430;BME280;13360;48.152;-1.788;2023-03-26T07:18:39;101249.72;;;11.06;100.00
25430;BME280;13360;48.152;-1.788;2023-03-26T07:21:05;101257.19;;;11.06;100.00
25430;BME280;13360;48.152;-1.788;2023-03-26T07:23:31;101249.72;;;11.01;100.00
25430;BME280;13360;48.152;-1.788;2023-03-26T07:25:56;101260.81;;;10.96;100.00
25430;BME280;13360;48.152;-1.788;2023-03-26T07:28:33;101270.81;;;10.92;100.00
25430;BME280;13360;48.152;-1.788;2023-03-26T07:31:26;101285.94;;;10.99;100.00
25430;BME280;13360;48.152;-1.788;2023-03-26T07:34:00;101300.31;;;11.02;100.00
25430;BME280;13360;48.152;-1.788;2023-03-26T07:36:34;101303.06;;;11.02;100.00
25430;BME280;13360;48.152;-1.788;2023-03-26T07:45:24;101337.22;;;11.21;100.00
25430;BME280;13360;48.152;-1.788;2023-03-26T07:47:53;101354.31;;;11.33;100.00
25430;BME280;13360;48.152;-1.788;2023-03-26T07:50:22;101373.31;;;11.45;100.00
25430;BME280;13360;48.152;-1.788;2023-03-26T07:52:49;101402.66;;;11.46;100.00
25430;BME280;13360;48.152;-1.788;2023-03-26T07:55:15;101399.38;;;11.34;100.00
25430;BME280;13360;48.152;-1.788;2023-03-26T08:00:19;101471.13;;;11.10;100.00
25430;BME280;13360;48.152;-1.788;2023-03-26T08:05:30;101460.34;;;11.08;100.00
25430;BME280;13360;48.152;-1.788;2023-03-26T08:08:20;101439.91;;;11.04;100.00
25430;BME280;13360;48.152;-1.788;2023-03-26T08:16:18;101417.84;;;10.94;100.00
25430;BME280;13360;48.152;-1.788;2023-03-26T08:18:55;101408.75;;;10.88;100.00
25430;BME280;13360;48.152;-1.788;2023-03-26T08:21:43;101404.91;;;10.84;100.00
25430;BME280;13360;48.152;-1.788;2023-03-26T08:24:28;101432.22;;;10.91;100.00
25430;BME280;13360;48.152;-1.788;2023-03-26T08:27:12;101463.13;;;11.03;100.00
25430;BME280;13360;48.152;-1.788;2023-03-26T08:29:46;101480.19;;;11.20;100.00
25430;BME280;13360;48.152;-1.788;2023-03-26T08:32:17;101504.75;;;11.37;100.00
25430;BME280;13360;48.152;-1.788;2023-03-26T08:34:44;101514.06;;;11.56;100.00
25430;BME280;13360;48.152;-1.788;2023-03-26T08:37:10;101511.16;;;11.82;100.00
25430;BME280;13360;48.152;-1.788;2023-03-26T08:39:36;101487.38;;;11.81;100.00
25430;BME280;13360;48.152;-1.788;2023-03-26T08:44:39;101419.38;;;11.65;100.00
25430;BME280;13360;48.152;-1.788;2023-03-26T08:49:48;101368.06;;;11.48;100.00
25430;BME280;13360;48.152;-1.788;2023-03-26T09:21:31;101279.97;;;10.87;100.00
25430;BME280;13360;48.152;-1.788;2023-03-26T09:46:22;101308.38;;;10.93;100.00
25430;BME280;13360;48.152;-1.788;2023-03-26T09:54:37;101339.03;;;10.96;100.00
25430;BME280;13360;48.152;-1.788;2023-03-26T10:05:25;101351.78;;;10.92;100.00
25430;BME280;13360;48.152;-1.788;2023-03-26T10:11:01;101427.31;;;11.37;100.00
25430;BME280;13360;48.152;-1.788;2023-03-26T10:14:03;101454.41;;;11.84;100.00
25430;BME280;13360;48.152;-1.788;2023-03-26T10:16:40;101510.47;;;12.68;100.00
25430;BME280;13360;48.152;-1.788;2023-03-26T10:33:29;101317.34;;;13.63;100.00
25430;BME280;13360;48.152;-1.788;2023-03-26T10:42:54;101291.34;;;13.40;100.00
25430;BME280;13360;48.152;-1.788;2023-03-26T10:48:26;101293.44;;;13.29;100.00
25430;BME280;13360;48.152;-1.788;2023-03-26T10:53:55;101255.41;;;13.11;100.00
25430;BME280;13360;48.152;-1.788;2023-03-26T10:56:27;101263.31;;;13.23;100.00
25430;BME280;13360;48.152;-1.788;2023-03-26T10:58:54;101262.41;;;13.27;100.00
25430;BME280;13360;48.152;-1.788;2023-03-26T11:01:51;101237.38;;;13.13;100.00
25430;BME280;13360;48.152;-1.788;2023-03-26T11:14:40;101219.69;;;12.91;100.00
25430;BME280;13360;48.152;-1.788;2023-03-26T11:31:18;101233.72;;;13.18;100.00
25430;BME280;13360;48.152;-1.788;2023-03-26T11:33:54;101262.09;;;13.29;100.00
25430;BME280;13360;48.152;-1.788;2023-03-26T11:36:29;101285.88;;;13.35;100.00
25430;BME280;13360;48.152;-1.788;2023-03-26T11:38:58;101288.56;;;13.40;100.00
25430;BME280;13360;48.152;-1.788;2023-03-26T11:41:27;101289.09;;;13.42;100.00
25430;BME280;13360;48.152;-1.788;2023-03-26T11:43:59;101272.66;;;13.46;100.00
25430;BME280;13360;48.152;-1.788;2023-03-26T11:46:27;101235.03;;;13.39;100.00
25430;BME280;13360;48.152;-1.788;2023-03-26T11:48:56;101259.50;;;13.51;100.00
25430;BME280;13360;48.152;-1.788;2023-03-26T11:51:30;101245.88;;;13.55;100.00
25430;BME280;13360;48.152;-1.788;2023-03-26T11:53:57;101229.75;;;13.57;100.00
25430;BME280;13360;48.152;-1.788;2023-03-26T11:56:31;101249.16;;;13.57;100.00
25430;BME280;13360;48.152;-1.788;2023-03-26T11:59:11;101218.41;;;13.53;100.00
25430;BME280;13360;48.152;-1.788;2023-03-26T12:01:57;101227.38;;;13.64;100.00
25430;BME280;13360;48.152;-1.788;2023-03-26T12:07:16;101261.25;;;13.80;100.00
25430;BME280;13360;48.152;-1.788;2023-03-26T12:09:52;101242.91;;;13.65;100.00
25430;BME280;13360;48.152;-1.788;2023-03-26T12:12:20;101261.63;;;13.59;100.00
25430;BME280;13360;48.152;-1.788;2023-03-26T12:14:46;101277.53;;;13.54;100.00
25430;BME280;13360;48.152;-1.788;2023-03-26T12:17:35;101309.84;;;13.63;100.00
25430;BME280;13360;48.152;-1.788;2023-03-26T12:20:01;101360.53;;;13.69;100.00
25430;BME280;13360;48.152;-1.788;2023-03-26T12:22:46;101325.25;;;13.56;100.00
25430;BME280;13360;48.152;-1.788;2023-03-26T12:25:18;101350.13;;;13.61;100.00
25430;BME280;13360;48.152;-1.788;2023-03-26T12:27:49;101401.50;;;13.77;100.00
25430;BME280;13360;48.152;-1.788;2023-03-26T12:30:37;101375.69;;;13.77;100.00
25430;BME280;13360;48.152;-1.788;2023-03-26T12:33:05;101312.91;;;13.62;100.00
25430;BME280;13360;48.152;-1.788;2023-03-26T12:35:33;101298.59;;;13.55;100.00
25430;BME280;13360;48.152;-1.788;2023-03-26T12:41:15;101343.50;;;13.76;100.00
25430;BME280;13360;48.152;-1.788;2023-03-26T12:43:49;101329.31;;;13.77;100.00
25430;BME280;13360;48.152;-1.788;2023-03-26T12:48:49;101377.56;;;13.81;100.00
25430;BME280;13360;48.152;-1.788;2023-03-26T12:54:12;101360.28;;;13.84;100.00
25430;BME280;13360;48.152;-1.788;2023-03-26T13:05:56;101341.72;;;13.98;100.00
25430;BME280;13360;48.152;-1.788;2023-03-26T13:08:59;101358.06;;;14.00;100.00
25430;BME280;13360;48.152;-1.788;2023-03-26T13:16:55;101264.63;;;13.77;100.00
25430;BME280;13360;48.152;-1.788;2023-03-26T13:19:52;101242.69;;;13.61;100.00
25430;BME280;13360;48.152;-1.788;2023-03-26T13:33:31;101381.69;;;13.27;100.00
25430;BME280;13360;48.152;-1.788;2023-03-26T13:36:15;101388.25;;;13.36;100.00
25430;BME280;13360;48.152;-1.788;2023-03-26T13:46:50;101491.13;;;13.40;100.00
25430;BME280;13360;48.152;-1.788;2023-03-26T13:49:34;101507.03;;;13.34;100.00
25430;BME280;13360;48.152;-1.788;2023-03-26T13:52:16;101502.00;;;13.36;100.00
25430;BME280;13360;48.152;-1.788;2023-03-26T13:54:56;101525.78;;;13.42;100.00
25430;BME280;13360;48.152;-1.788;2023-03-26T14:00:04;101612.28;;;13.50;100.00
25430;BME280;13360;48.152;-1.788;2023-03-26T14:02:44;101617.28;;;13.48;100.00
25430;BME280;13360;48.152;-1.788;2023-03-26T14:05:41;101628.59;;;13.56;100.00
25430;BME280;13360;48.152;-1.788;2023-03-26T14:08:17;101641.66;;;13.56;100.00
25430;BME280;13360;48.152;-1.788;2023-03-26T14:10:51;101654.25;;;13.67;100.00
25430;BME280;13360;48.152;-1.788;2023-03-26T14:13:34;101683.88;;;13.77;100.00
25430;BME280;13360;48.152;-1.788;2023-03-26T14:16:26;101699.72;;;13.76;100.00
25430;BME280;13360;48.152;-1.788;2023-03-26T14:18:57;101716.59;;;13.80;100.00
25430;BME280;13360;48.152;-1.788;2023-03-26T14:35:58;101640.53;;;13.57;100.00
25430;BME280;13360;48.152;-1.788;2023-03-26T14:41:28;101581.44;;;13.27;100.00
25430;BME280;13360;48.152;-1.788;2023-03-26T14:46:36;101562.31;;;13.26;100.00
25430;BME280;13360;48.152;-1.788;2023-03-26T14:54:29;101534.44;;;13.12;100.00
25430;BME280;13360;48.152;-1.788;2023-03-26T15:16:04;101477.38;;;13.54;100.00
25430;BME280;13360;48.152;-1.788;2023-03-26T15:27:22;101489.81;;;13.56;100.00
25430;BME280;13360;48.152;-1.788;2023-03-26T15:36:16;101485.75;;;13.86;100.00
25430;BME280;13360;48.152;-1.788;2023-03-26T15:50:19;101471.66;;;13.83;100.00
25430;BME280;13360;48.152;-1.788;2023-03-26T15:52:55;101433.38;;;13.80;100.00
25430;BME280;13360;48.152;-1.788;2023-03-26T15:55:31;101419.28;;;13.76;100.00
25430;BME280;13360;48.152;-1.788;2023-03-26T16:00:36;101366.28;;;13.72;100.00
25430;BME280;13360;48.152;-1.788;2023-03-26T16:08:26;101324.63;;;13.59;100.00
25430;BME280;13360;48.152;-1.788;2023-03-26T16:10:58;101312.75;;;13.53;100.00
25430;BME280;13360;48.152;-1.788;2023-03-26T16:16:16;101308.44;;;13.47;100.00
25430;BME280;13360;48.152;-1.788;2023-03-26T16:24:29;101253.47;;;13.30;100.00
25430;BME280;13360;48.152;-1.788;2023-03-26T16:29:32;101220.84;;;13.41;100.00
25430;BME280;13360;48.152;-1.788;2023-03-26T16:32:03;101184.06;;;13.35;100.00
25430;BME280;13360;48.152;-1.788;2023-03-26T16:34:44;101178.06;;;13.28;100.00
25430;BME280;13360;48.152;-1.788;2023-03-26T16:40:31;101189.78;;;13.25;100.00
25430;BME280;13360;48.152;-1.788;2023-03-26T16:43:23;101194.06;;;13.18;100.00
25430;BME280;13360;48.152;-1.788;2023-03-26T16:51:43;101227.78;;;13.25;100.00
25430;BME280;13360;48.152;-1.788;2023-03-26T16:57:27;101266.47;;;13.16;100.00
25430;BME280;13360;48.152;-1.788;2023-03-26T17:00:04;101254.59;;;13.10;100.00
25430;BME280;13360;48.152;-1.788;2023-03-26T17:07:42;101255.59;;;13.01;100.00
25430;BME280;13360;48.152;-1.788;2023-03-26T17:10:24;101280.03;;;12.99;100.00
25430;BME280;13360;48.152;-1.788;2023-03-26T17:13:14;101301.38;;;12.98;100.00
25430;BME280;13360;48.152;-1.788;2023-03-26T17:15:55;101320.72;;;13.03;100.00
25430;BME280;13360;48.152;-1.788;2023-03-26T17:21:35;101338.91;;;12.91;100.00
25430;BME280;13360;48.152;-1.788;2023-03-26T17:27:16;101335.59;;;12.89;100.00
25430;BME280;13360;48.152;-1.788;2023-03-26T17:35:44;101366.53;;;12.77;100.00
25430;BME280;13360;48.152;-1.788;2023-03-26T17:40:51;101380.69;;;12.75;100.00
25430;BME280;13360;48.152;-1.788;2023-03-26T17:46:21;101443.03;;;12.78;100.00
25430;BME280;13360;48.152;-1.788;2023-03-26T17:48:59;101457.72;;;12.78;100.00
25430;BME280;13360;48.152;-1.788;2023-03-26T17:54:37;101493.59;;;12.94;100.00
25430;BME280;13360;48.152;-1.788;2023-03-26T17:57:05;101499.69;;;12.96;100.00
25430;BME280;13360;48.152;-1.788;2023-03-26T17:59:34;101526.28;;;12.97;100.00
25430;BME280;13360;48.152;-1.788;2023-03-26T18:02:03;101533.53;;;12.93;100.00
25430;BME280;13360;48.152;-1.788;2023-03-26T18:04:30;101565.13;;;12.97;100.00
25430;BME280;13360;48.152;-1.788;2023-03-26T18:07:14;101561.22;;;12.98;100.00
25430;BME280;13360;48.152;-1.788;2023-03-26T18:10:14;101565.63;;;12.99;100.00
25430;BME280;13360;48.152;-1.788;2023-03-26T18:13:02;101574.84;;;12.94;100.00
25430;BME280;13360;48.152;-1.788;2023-03-26T18:15:40;101584.00;;;12.95;100.00
25430;BME280;13360;48.152;-1.788;2023-03-26T18:18:22;101600.22;;;12.77;100.00
25430;BME280;13360;48.152;-1.788;2023-03-26T18:20:52;101617.19;;;12.71;100.00